Time;durP1;ratioP1;P1;durP2;ratioP2;P2;SDS_P1;SDS_P2;PMS_P1;PMS_P2;Temp;Humidity;BMP_temperature;BMP_pressure;BME280_temperature;BME280_humidity;BME280_pressure;Samples;Min_cycle;Max_cycle;Signal;HPM_P1;HPM_P2
2021/05/27 00:00:31;;;;;;;8.13;3.00;;;;;;;8.54;61.69;97009.66;1798210;78;25660;-79
2021/05/27 00:02:59;;;;;;;6.62;2.95;;;;;;;8.52;61.72;97008.20;1766870;79;26219;-80
2021/05/27 00:05:27;;;;;;;8.55;2.90;;;;;;;8.44;61.85;97007.08;1786638;79;25777;-79
2021/05/27 00:07:54;;;;;;;9.10;2.60;;;;;;;8.36;61.96;97005.92;1781877;79;25793;-82
2021/05/27 00:10:25;;;;;;;7.35;2.47;;;;;;;8.34;62.05;97012.02;1773931;79;27821;-82
2021/05/27 00:12:53;;;;;;;7.05;2.83;;;;;;;8.28;62.07;97014.49;1762720;79;25658;-83
2021/05/27 00:15:22;;;;;;;6.92;3.33;;;;;;;8.27;62.21;97015.52;1781633;79;25674;-83
2021/05/27 00:17:49;;;;;;;8.28;3.72;;;;;;;8.24;62.26;97013.23;1768552;79;26566;-82
2021/05/27 00:20:17;;;;;;;10.40;3.45;;;;;;;8.22;62.37;97011.27;1766606;79;25765;-83
2021/05/27 00:22:44;;;;;;;4.72;2.72;;;;;;;8.22;62.46;97008.58;1780996;79;27262;-84
2021/05/27 00:25:13;;;;;;;7.25;2.90;;;;;;;8.25;62.62;97009.52;1766318;79;25679;-85
2021/05/27 00:27:42;;;;;;;7.72;3.45;;;;;;;8.21;62.79;97005.58;1777884;79;25609;-83
2021/05/27 00:30:10;;;;;;;8.03;3.20;;;;;;;8.16;62.77;97013.45;1772256;79;25694;-84
2021/05/27 00:32:37;;;;;;;6.67;2.98;;;;;;;8.19;62.90;97017.08;1766603;79;25628;-82
2021/05/27 00:35:05;;;;;;;5.72;2.77;;;;;;;8.17;62.94;97021.00;1770369;79;27233;-82
2021/05/27 00:37:32;;;;;;;6.70;2.98;;;;;;;8.17;62.99;97016.97;1788936;79;25816;-83
2021/05/27 00:39:59;;;;;;;6.35;3.37;;;;;;;8.16;63.09;97016.14;1781709;79;25758;-85
2021/05/27 00:42:25;;;;;;;7.55;2.85;;;;;;;8.12;63.17;97025.64;1766812;79;25675;-84
2021/05/27 00:45:06;;;;;;;6.55;2.45;;;;;;;8.13;63.34;97024.61;1788384;79;25605;-83
2021/05/27 00:47:33;;;;;;;6.75;2.77;;;;;;;8.09;63.38;97022.00;1799552;79;28053;-85
2021/05/27 00:50:00;;;;;;;4.87;2.70;;;;;;;8.05;63.50;97020.78;1767797;79;25874;-82
2021/05/27 00:52:27;;;;;;;9.43;3.25;;;;;;;7.99;63.45;97021.58;1773071;79;25867;-84
2021/05/27 00:54:54;;;;;;;7.00;2.75;;;;;;;8.04;63.49;97023.16;1778538;79;25712;-82
2021/05/27 00:57:36;;;;;;;9.10;2.92;;;;;;;8.10;63.72;97025.52;1780940;78;25676;-84
2021/05/27 01:00:11;;;;;;;5.20;2.75;;;;;;;8.12;63.64;97029.67;1769378;79;28296;-84
2021/05/27 01:02:38;;;;;;;5.17;2.67;;;;;;;8.10;63.87;97030.38;1777613;79;25724;-84
2021/05/27 01:05:08;;;;;;;6.87;2.47;;;;;;;8.06;63.95;97026.47;1764743;79;25570;-82
2021/05/27 01:07:35;;;;;;;11.33;2.40;;;;;;;8.04;63.97;97032.56;1764538;79;26270;-84
2021/05/27 01:10:04;;;;;;;7.37;2.35;;;;;;;8.01;64.00;97031.62;1769144;79;25673;-82
2021/05/27 01:12:31;;;;;;;5.92;2.30;;;;;;;7.93;64.02;97034.00;1766267;79;27345;-83
2021/05/27 01:17:43;;;;;;;4.85;2.33;;;;;;;7.84;64.42;97029.02;1771945;79;25676;-82
2021/05/27 01:20:12;;;;;;;3.92;2.67;;;;;;;7.79;64.50;97032.30;1761096;79;26328;-82
2021/05/27 01:22:39;;;;;;;4.92;2.00;;;;;;;7.80;64.74;97029.10;1741726;79;25607;-82
2021/05/27 01:25:08;;;;;;;3.83;2.40;;;;;;;7.81;64.82;97030.76;1759739;79;27407;-82
2021/05/27 01:27:36;;;;;;;5.53;1.77;;;;;;;7.83;64.97;97028.70;1754695;81;25724;-83
2021/05/27 01:30:06;;;;;;;4.33;2.02;;;;;;;7.85;65.38;97029.30;1706657;82;25655;-84
2021/05/27 01:32:33;;;;;;;3.85;1.87;;;;;;;7.86;65.47;97030.96;1737484;81;25631;-79
2021/05/27 01:35:01;;;;;;;6.00;2.25;;;;;;;7.85;65.47;97027.45;1769731;79;25634;-83
2021/05/27 01:37:28;;;;;;;3.55;1.75;;;;;;;7.90;65.60;97029.53;1766236;79;27373;-83
2021/05/27 01:39:54;;;;;;;5.17;1.80;;;;;;;7.94;65.71;97030.80;1768189;79;25641;-80
2021/05/27 01:42:22;;;;;;;5.22;2.08;;;;;;;7.98;65.65;97033.36;1786018;79;25664;-83
2021/05/27 01:44:49;;;;;;;3.30;1.90;;;;;;;8.02;65.75;97036.48;1769028;79;26438;-79
2021/05/27 01:47:17;;;;;;;4.95;2.10;;;;;;;8.09;65.80;97040.03;1792676;79;25578;-82
2021/05/27 01:49:43;;;;;;;3.98;2.37;;;;;;;8.12;66.01;97026.16;1770799;79;27976;-82
2021/05/27 01:52:10;;;;;;;3.37;2.05;;;;;;;8.09;65.87;97026.03;1779133;79;25616;-83
2021/05/27 01:54:40;;;;;;;10.25;2.55;;;;;;;8.22;66.07;97038.16;1799055;79;26221;-82
2021/05/27 01:57:07;;;;;;;5.15;1.90;;;;;;;8.23;66.21;97035.78;1777437;79;26428;-82
2021/05/27 01:59:33;;;;;;;7.20;2.58;;;;;;;8.27;66.12;97031.66;1765874;79;25570;-78
2021/05/27 02:02:00;;;;;;;3.75;2.20;;;;;;;8.30;66.12;97037.98;1787207;79;27336;-79
2021/05/27 02:04:27;;;;;;;5.03;2.08;;;;;;;8.35;66.25;97039.23;1791456;79;25727;-79
2021/05/27 02:06:53;;;;;;;7.03;1.90;;;;;;;8.34;66.18;97041.61;1791348;79;26303;-78
2021/05/27 02:09:20;;;;;;;4.20;1.90;;;;;;;8.35;66.13;97030.65;1788089;79;26259;-84
2021/05/27 02:11:49;;;;;;;2.65;1.80;;;;;;;8.38;66.25;97041.52;1772067;79;25200;-80
2021/05/27 02:14:19;;;;;;;5.05;2.33;;;;;;;8.42;66.24;97041.42;1765868;79;27288;-83
2021/05/27 02:16:47;;;;;;;6.03;1.87;;;;;;;8.47;66.34;97043.79;1783925;79;25597;-78
2021/05/27 02:19:14;;;;;;;5.25;2.08;;;;;;;8.48;66.41;97043.27;1762620;79;25678;-78
2021/05/27 02:21:40;;;;;;;6.03;2.20;;;;;;;8.49;66.60;97048.97;1780255;79;26455;-78
2021/05/27 02:24:09;;;;;;;7.67;2.02;;;;;;;8.50;66.79;97047.94;1776136;79;25626;-79
2021/05/27 02:26:35;;;;;;;4.60;1.90;;;;;;;8.54;66.83;97045.16;1793415;79;27320;-78
2021/05/27 02:29:03;;;;;;;7.30;1.95;;;;;;;8.57;66.87;97048.78;1766492;79;25748;-78
2021/05/27 02:31:30;;;;;;;4.78;2.35;;;;;;;8.56;66.97;97047.12;1761250;79;25644;-78
2021/05/27 02:33:56;;;;;;;6.42;2.02;;;;;;;8.54;66.95;97048.67;1780117;79;25692;-80
2021/05/27 02:36:24;;;;;;;9.13;2.65;;;;;;;8.57;66.92;97044.20;1761406;79;25493;-84
2021/05/27 02:38:53;;;;;;;6.20;2.20;;;;;;;8.60;67.11;97045.66;1785737;77;27916;-79
2021/05/27 02:41:20;;;;;;;7.03;2.30;;;;;;;8.64;66.93;97054.97;1807796;78;26380;-79
2021/05/27 02:43:48;;;;;;;5.83;2.37;;;;;;;8.69;66.92;97052.50;1783695;79;25727;-78
2021/05/27 02:46:14;;;;;;;5.20;2.17;;;;;;;8.75;66.97;97059.73;1769971;78;26560;-83
2021/05/27 02:48:41;;;;;;;6.30;2.42;;;;;;;8.82;67.00;97059.70;1797564;79;25636;-82
2021/05/27 02:51:07;;;;;;;12.07;2.70;;;;;;;8.86;67.14;97063.12;1779985;79;28000;-78
2021/05/27 02:53:34;;;;;;;10.25;3.10;;;;;;;8.88;67.17;97060.23;1776837;79;25629;-78
2021/05/27 02:56:00;;;;;;;4.25;2.33;;;;;;;8.92;67.34;97052.89;1788094;79;25633;-78
2021/05/27 02:58:27;;;;;;;7.15;2.30;;;;;;;8.96;67.31;97055.45;1769075;79;25675;-79
2021/05/27 03:00:54;;;;;;;4.67;1.80;;;;;;;9.00;67.32;97049.97;1774162;79;25260;-81
2021/05/27 03:03:21;;;;;;;4.12;2.08;;;;;;;9.03;67.18;97053.59;1781149;79;28012;-78
2021/05/27 03:05:51;;;;;;;6.08;1.90;;;;;;;9.10;66.98;97048.70;1772153;79;25801;-79
2021/05/27 03:08:18;;;;;;;4.37;1.77;;;;;;;9.17;66.92;97049.53;1776457;79;25728;-80
2021/05/27 03:10:45;;;;;;;2.27;1.47;;;;;;;9.22;66.81;97049.70;1798340;79;26385;-81
2021/05/27 03:13:11;;;;;;;3.08;1.75;;;;;;;9.28;66.79;97054.26;1770672;79;25582;-79
2021/05/27 03:15:38;;;;;;;2.55;1.50;;;;;;;9.33;66.72;97045.00;1791153;79;27905;-79
2021/05/27 03:18:07;;;;;;;3.42;1.50;;;;;;;9.38;66.67;97043.34;1776594;79;25657;-83
2021/05/27 03:20:35;;;;;;;6.37;1.40;;;;;;;9.45;66.58;97051.91;1794518;79;25772;-81
2021/05/27 03:23:04;;;;;;;6.62;1.77;;;;;;;9.51;66.51;97052.42;1779081;79;26289;-81
2021/05/27 03:25:31;;;;;;;3.45;1.50;;;;;;;9.55;66.54;97051.76;1773437;79;25203;-83
2021/05/27 03:27:58;;;;;;;2.83;1.42;;;;;;;9.59;66.36;97054.34;1772977;79;27315;-79
2021/05/27 03:30:25;;;;;;;14.93;1.87;;;;;;;9.67;65.91;97049.22;1787030;79;25602;-83
2021/05/27 03:32:53;;;;;;;4.80;1.30;;;;;;;9.84;65.09;97056.31;1761327;79;25733;-83
2021/05/27 03:35:19;;;;;;;4.50;1.80;;;;;;;10.11;64.54;97042.99;1761328;79;25755;-83
2021/05/27 03:37:49;;;;;;;6.83;2.22;;;;;;;10.23;64.16;97041.28;1768478;79;25686;-83
2021/05/27 03:40:17;;;;;;;3.52;2.30;;;;;;;10.30;64.22;97047.45;1788472;79;27276;-82
2021/05/27 03:42:49;;;;;;;3.35;2.17;;;;;;;10.35;64.18;97061.13;1795120;79;25668;-80
2021/05/27 03:45:25;;;;;;;5.70;2.02;;;;;;;10.40;64.22;97055.05;1774619;80;25576;-83
2021/05/27 03:47:53;;;;;;;5.25;1.70;;;;;;;10.41;64.11;97050.79;1788283;79;25823;-84
2021/05/27 03:50:22;;;;;;;2.30;1.52;;;;;;;10.41;63.74;97040.00;1787729;80;25661;-79
2021/05/27 03:52:49;;;;;;;3.55;1.72;;;;;;;10.50;63.62;97045.97;1768561;79;27273;-82
2021/05/27 03:55:18;;;;;;;3.15;1.42;;;;;;;10.54;63.14;97042.30;1788073;79;25633;-79
2021/05/27 03:57:47;;;;;;;3.10;1.50;;;;;;;10.64;63.05;97052.89;1766160;79;25615;-83
2021/05/27 04:03:05;;;;;;;3.85;1.70;;;;;;;10.77;62.80;97054.66;1734933;82;25643;-79
2021/05/27 04:08:17;;;;;;;6.95;1.82;;;;;;;10.85;62.75;97044.95;1676651;84;25972;-84
2021/05/27 04:10:45;;;;;;;6.10;2.00;;;;;;;10.87;62.85;97048.23;1758390;79;26277;-84
2021/05/27 04:13:13;;;;;;;4.62;1.72;;;;;;;10.91;62.98;97048.09;1789808;78;26397;-84
2021/05/27 04:15:40;;;;;;;4.45;2.17;;;;;;;10.97;62.89;97058.02;1772491;79;25664;-83
2021/05/27 04:18:15;;;;;;;5.80;2.17;;;;;;;10.99;63.25;97061.30;1788576;79;27347;-82
2021/05/27 04:20:46;;;;;;;8.00;2.35;;;;;;;11.03;63.56;97067.92;1799728;78;25625;-84
2021/05/27 04:23:17;;;;;;;5.22;2.50;;;;;;;11.03;63.45;97067.09;1774106;79;25575;-84
2021/05/27 04:25:43;;;;;;;5.78;2.67;;;;;;;11.06;63.55;97070.19;1798284;79;25922;-81
2021/05/27 04:28:10;;;;;;;5.45;2.42;;;;;;;11.12;63.72;97075.20;1786157;79;25184;-82
2021/05/27 04:33:23;;;;;;;6.17;2.52;;;;;;;11.19;63.69;97069.23;1761533;79;25615;-83
2021/05/27 04:35:50;;;;;;;6.58;2.60;;;;;;;11.28;63.70;97067.06;1761452;79;25639;-82
2021/05/27 04:38:18;;;;;;;7.72;2.12;;;;;;;11.35;63.78;97065.13;1772971;79;26567;-80
2021/05/27 04:40:48;;;;;;;4.05;2.40;;;;;;;11.42;63.93;97062.64;1799490;79;26286;-81
2021/05/27 04:43:17;;;;;;;4.72;2.67;;;;;;;11.50;64.12;97060.16;1793996;79;27311;-83
2021/05/27 04:45:44;;;;;;;5.33;2.47;;;;;;;11.57;64.23;97057.39;1791379;79;26285;-80
2021/05/27 04:48:13;;;;;;;6.90;2.47;;;;;;;11.64;63.99;97058.95;1767872;79;25629;-83
2021/05/27 04:50:41;;;;;;;5.70;3.05;;;;;;;11.72;64.04;97061.34;1781279;79;25687;-83
2021/05/27 04:53:08;;;;;;;6.75;2.75;;;;;;;11.77;63.96;97061.53;1798690;79;25680;-84
2021/05/27 04:55:35;;;;;;;5.53;3.20;;;;;;;11.86;63.66;97064.74;1770696;79;28047;-82
2021/05/27 04:58:03;;;;;;;5.28;2.50;;;;;;;11.96;62.93;97062.84;1772501;79;25664;-80
2021/05/27 05:00:30;;;;;;;6.05;2.00;;;;;;;12.09;62.54;97058.61;1804116;78;25632;-80
2021/05/27 05:02:59;;;;;;;5.35;2.17;;;;;;;12.20;62.25;97065.42;1791620;79;26517;-82
2021/05/27 05:05:28;;;;;;;6.42;2.15;;;;;;;12.30;61.95;97062.18;1777403;79;25611;-81
2021/05/27 05:07:55;;;;;;;3.37;1.72;;;;;;;12.41;61.99;97065.98;1783409;78;27331;-79
2021/05/27 05:10:24;;;;;;;3.40;1.65;;;;;;;12.50;61.55;97064.58;1788242;79;25216;-81
2021/05/27 05:12:52;;;;;;;2.85;1.40;;;;;;;12.59;61.21;97062.66;1795476;79;25676;-85
2021/05/27 05:15:33;;;;;;;6.58;1.47;;;;;;;12.72;60.72;97059.44;1776428;79;25774;-85
2021/05/27 05:18:05;;;;;;;3.72;1.50;;;;;;;12.81;60.14;97058.03;1788763;79;25765;-84
2021/05/27 05:20:42;;;;;;;2.17;1.70;;;;;;;12.91;60.01;97063.72;1761517;79;27368;-85
2021/05/27 05:23:10;;;;;;;2.55;1.60;;;;;;;12.99;59.65;97064.72;1781845;79;25919;-86
2021/05/27 05:25:39;;;;;;;3.12;1.55;;;;;;;13.07;59.58;97058.94;1804009;79;26312;-85
2021/05/27 05:28:07;;;;;;;5.60;1.40;;;;;;;13.17;59.16;97057.84;1792948;79;26467;-85
2021/05/27 05:30:35;;;;;;;3.25;1.30;;;;;;;13.26;59.10;97060.52;1777065;79;25634;-85
2021/05/27 05:33:02;;;;;;;2.15;1.50;;;;;;;13.36;58.44;97055.85;1788328;79;27322;-83
2021/05/27 05:35:30;;;;;;;3.17;1.30;;;;;;;13.43;58.16;97052.47;1781845;79;26616;-87
2021/05/27 05:37:57;;;;;;;2.85;1.40;;;;;;;13.52;57.87;97050.23;1761223;79;25674;-81
2021/05/27 05:40:27;;;;;;;6.08;1.87;;;;;;;13.57;57.77;97047.62;1761267;79;25758;-86
2021/05/27 05:42:55;;;;;;;4.12;1.40;;;;;;;13.66;58.25;97044.82;1797436;79;25574;-84
2021/05/27 05:45:22;;;;;;;6.87;1.90;;;;;;;13.75;58.30;97056.97;1796733;79;28161;-86
2021/05/27 05:47:51;;;;;;;6.35;1.92;;;;;;;13.82;57.76;97050.86;1790313;79;25777;-87
2021/05/27 05:53:08;;;;;;;2.75;1.60;;;;;;;14.04;57.61;97050.48;1777714;79;25731;-86
2021/05/27 05:55:36;;;;;;;3.92;1.15;;;;;;;14.16;57.40;97045.55;1764336;79;25678;-85
2021/05/27 05:58:04;;;;;;;3.00;1.17;;;;;;;14.24;56.64;97051.96;1761617;79;27350;-85
2021/05/27 06:00:32;;;;;;;4.75;1.32;;;;;;;14.29;56.09;97045.25;1781545;79;25600;-85
2021/05/27 06:02:59;;;;;;;3.17;1.20;;;;;;;14.31;56.32;97049.91;1799760;79;26283;-85
2021/05/27 06:05:25;;;;;;;3.77;1.40;;;;;;;14.39;56.04;97048.14;1772027;79;25900;-86
2021/05/27 06:07:53;;;;;;;7.95;1.50;;;;;;;14.49;55.59;97047.00;1769382;79;25631;-85
2021/05/27 06:10:20;;;;;;;3.00;1.20;;;;;;;14.63;56.15;97043.44;1788025;79;27472;-92
2021/05/27 06:12:50;;;;;;;4.60;1.75;;;;;;;14.78;56.21;97035.55;1798110;79;25631;-88
2021/05/27 06:15:21;;;;;;;3.50;2.15;;;;;;;14.95;56.30;97036.38;1769467;79;25618;-86
2021/05/27 06:17:46;;;;;;;2.25;1.30;;;;;;;15.11;56.37;97040.14;1796989;79;25800;-87
2021/05/27 06:20:14;;;;;;;4.42;1.47;;;;;;;15.20;55.67;97041.39;1792836;79;25665;-88
2021/05/27 06:22:41;;;;;;;2.80;1.40;;;;;;;15.32;55.76;97048.08;1796080;79;25712;-86
2021/05/27 06:25:08;;;;;;;2.25;1.47;;;;;;;15.42;55.13;97044.14;1778726;78;25633;-86
2021/05/27 06:27:35;;;;;;;4.45;1.55;;;;;;;15.53;55.32;97043.20;1763377;79;26376;-90
2021/05/27 06:30:01;;;;;;;7.78;1.65;;;;;;;15.65;55.07;97045.84;1786195;79;25616;-90
2021/05/27 06:32:29;;;;;;;3.50;1.60;;;;;;;15.77;54.54;97042.46;1779154;79;25678;-86
2021/05/27 06:34:55;;;;;;;3.55;1.90;;;;;;;15.87;54.05;97042.58;1788666;79;25503;-88
2021/05/27 06:37:22;;;;;;;2.45;1.37;;;;;;;15.97;53.57;97039.98;1772672;79;25656;-86
2021/05/27 06:39:49;;;;;;;3.30;1.70;;;;;;;16.01;53.36;97037.04;1761526;79;25614;-87
2021/05/27 06:42:15;;;;;;;4.53;1.82;;;;;;;16.04;53.08;97035.17;1761462;79;26325;-89
2021/05/27 06:44:41;;;;;;;2.20;1.25;;;;;;;16.05;52.98;97024.58;1780551;79;25523;-91
2021/05/27 06:47:08;;;;;;;5.75;1.12;;;;;;;16.04;52.74;97036.54;1777222;79;25662;-90
2021/05/27 06:49:34;;;;;;;3.62;1.60;;;;;;;16.02;52.09;97033.24;1783573;79;25556;-85
2021/05/27 06:52:01;;;;;;;6.08;1.92;;;;;;;16.04;52.30;97032.99;1781701;79;25648;-87
2021/05/27 06:54:28;;;;;;;4.12;2.33;;;;;;;16.11;52.35;97033.61;1789536;79;25715;-87
2021/05/27 06:56:54;;;;;;;5.20;1.82;;;;;;;16.20;52.24;97024.72;1778101;79;26188;-89
2021/05/27 06:59:20;;;;;;;1.57;1.47;;;;;;;16.28;52.17;97028.91;1790927;79;25602;-86
2021/05/27 07:01:47;;;;;;;2.87;1.65;;;;;;;16.30;51.93;97026.72;1781945;79;25645;-84
2021/05/27 07:04:13;;;;;;;3.12;1.60;;;;;;;16.34;51.80;97027.03;1784069;79;25577;-86
2021/05/27 07:06:39;;;;;;;4.53;1.72;;;;;;;16.32;51.31;97023.20;1771482;79;25522;-86
2021/05/27 07:09:06;;;;;;;3.75;1.35;;;;;;;16.30;51.35;97023.20;1770470;79;25243;-85
2021/05/27 07:11:32;;;;;;;2.33;1.32;;;;;;;16.28;51.19;97022.63;1746998;80;25720;-86
2021/05/27 07:13:58;;;;;;;7.50;1.60;;;;;;;16.25;51.02;97026.69;1748310;81;25629;-86
2021/05/27 07:16:27;;;;;;;3.72;1.32;;;;;;;16.23;50.95;97022.56;1773106;79;25709;-86
2021/05/27 07:18:53;;;;;;;2.42;1.50;;;;;;;16.24;50.90;97020.13;1760685;79;26533;-87
2021/05/27 07:21:19;;;;;;;4.67;1.50;;;;;;;16.29;51.02;97019.66;1792388;79;25593;-87
2021/05/27 07:23:46;;;;;;;3.00;1.32;;;;;;;16.36;50.83;97027.61;1776788;79;25617;-90
2021/05/27 07:26:13;;;;;;;7.20;1.50;;;;;;;16.38;50.71;97030.90;1761146;79;25632;-91
2021/05/27 07:28:39;;;;;;;1.70;1.52;;;;;;;16.45;50.52;97021.97;1761288;79;25224;-87
2021/05/27 07:31:06;;;;;;;3.35;1.50;;;;;;;16.49;50.28;97021.75;1799037;79;25285;-86
2021/05/27 07:33:33;;;;;;;1.62;1.05;;;;;;;16.62;50.66;97016.41;1788306;79;25721;-90
2021/05/27 07:35:59;;;;;;;2.58;1.20;;;;;;;16.78;50.57;97004.06;1772334;79;26385;-90
2021/05/27 07:38:26;;;;;;;4.25;1.60;;;;;;;16.92;50.37;97006.60;1787884;78;25675;-87
2021/05/27 07:40:53;;;;;;;2.25;1.22;;;;;;;16.97;49.63;97002.28;1797642;79;25609;-91
2021/05/27 07:43:19;;;;;;;3.55;1.00;;;;;;;17.09;49.69;97009.73;1769158;79;25624;-89
2021/05/27 07:45:45;;;;;;;2.33;1.05;;;;;;;17.21;49.40;97013.08;1770023;79;25757;-91
2021/05/27 07:48:12;;;;;;;1.50;1.25;;;;;;;17.37;49.20;97009.91;1774373;79;25586;-88
2021/05/27 07:50:38;;;;;;;4.87;1.50;;;;;;;17.68;49.27;97008.19;1747032;79;26939;-89
2021/05/27 07:53:07;;;;;;;4.47;1.40;;;;;;;18.14;49.49;97002.34;1787998;79;25587;-84
2021/05/27 07:55:34;;;;;;;5.65;2.00;;;;;;;18.64;48.94;97004.38;1771345;79;25650;-87
2021/05/27 07:58:00;;;;;;;1.80;1.00;;;;;;;19.08;48.47;97002.72;1791736;78;25629;-84
2021/05/27 08:00:26;;;;;;;2.00;1.10;;;;;;;19.43;47.58;97005.14;1755448;79;25721;-87
2021/05/27 08:02:53;;;;;;;2.00;1.15;;;;;;;19.83;47.29;97014.34;1791656;79;25696;-88
2021/05/27 08:05:20;;;;;;;3.12;1.90;;;;;;;20.35;47.11;97010.56;1763509;79;25237;-88
2021/05/27 08:07:48;;;;;;;3.05;1.67;;;;;;;20.89;46.67;97012.36;1775171;79;25756;-86
2021/05/27 08:10:15;;;;;;;3.40;1.10;;;;;;;21.36;46.31;97008.16;1785786;79;25708;-89
2021/05/27 08:12:43;;;;;;;1.25;0.88;;;;;;;21.72;45.86;97019.58;1767334;79;28316;-92
2021/05/27 08:15:10;;;;;;;2.65;0.80;;;;;;;22.01;45.07;97011.28;1777531;79;25685;-86
2021/05/27 08:17:37;;;;;;;3.12;1.05;;;;;;;21.69;43.81;97011.91;1775728;79;26331;-82
2021/05/27 08:20:07;;;;;;;2.05;1.00;;;;;;;21.69;43.81;97011.91;1770542;79;26375;-87
2021/05/27 08:22:34;;;;;;;1.42;0.80;;;;;;;21.62;43.87;97019.67;1788702;79;25744;-85
2021/05/27 08:25:02;;;;;;;1.50;0.70;;;;;;;21.79;43.78;97009.87;1769058;79;28177;-87
2021/05/27 08:27:30;;;;;;;3.85;1.00;;;;;;;21.84;43.64;97011.19;1773083;79;25708;-83
2021/05/27 08:29:57;;;;;;;1.77;0.95;;;;;;;21.93;43.37;96990.19;1766885;79;25301;-89
2021/05/27 08:32:26;;;;;;;1.57;0.78;;;;;;;22.42;43.13;97017.89;1774445;79;26346;-88
2021/05/27 08:34:52;;;;;;;4.87;0.93;;;;;;;22.67;42.55;97026.89;1787620;78;25632;-90
2021/05/27 08:37:19;;;;;;;4.83;0.90;;;;;;;22.49;42.43;97031.25;1769072;79;27489;-92
2021/05/27 08:39:47;;;;;;;1.30;0.85;;;;;;;22.82;42.33;97036.33;1772660;79;25583;-90
2021/05/27 08:42:16;;;;;;;1.30;1.12;;;;;;;23.12;41.85;97030.31;1761338;79;25975;-90
2021/05/27 08:44:45;;;;;;;2.75;1.00;;;;;;;23.28;41.36;97033.64;1762104;79;25840;-86
2021/05/27 08:47:12;;;;;;;2.58;0.95;;;;;;;23.22;41.20;97027.38;1761646;79;25562;-87
2021/05/27 08:49:39;;;;;;;3.00;0.98;;;;;;;23.35;40.48;97033.49;1761213;79;27919;-90
2021/05/27 08:52:05;;;;;;;1.87;1.02;;;;;;;23.30;40.38;97022.59;1782992;78;25599;-91
2021/05/27 08:54:32;;;;;;;1.35;0.90;;;;;;;23.20;40.72;97025.48;1790981;79;25655;-88
2021/05/27 08:57:04;;;;;;;1.87;1.00;;;;;;;23.64;40.91;97025.02;1794816;79;26367;-91
2021/05/27 08:59:30;;;;;;;;;;;;;;;24.25;40.12;97023.01;1755806;80;25812;-93
2021/05/27 09:02:07;;;;;;;0.80;0.70;;;;;;;24.80;38.36;97017.34;1708507;82;27574;-87
2021/05/27 09:04:35;;;;;;;1.10;1.00;;;;;;;25.23;38.73;97018.53;1729036;82;25690;-88
2021/05/27 09:07:03;;;;;;;1.22;0.85;;;;;;;25.62;38.26;97015.59;1735050;81;25442;-90
2021/05/27 09:09:55;;;;;;;2.10;0.70;;;;;;;25.52;37.58;97018.61;1749439;80;25743;-88
2021/05/27 09:12:34;;;;;;;1.87;1.10;;;;;;;25.42;37.54;97025.22;1732541;81;25691;-87
2021/05/27 09:15:06;;;;;;;1.75;1.00;;;;;;;25.27;37.33;97020.08;1755129;80;27328;-89
2021/05/27 09:17:53;;;;;;;4.77;1.37;;;;;;;25.57;36.96;97017.10;1752635;81;25734;-91
2021/05/27 09:20:28;;;;;;;4.33;1.00;;;;;;;25.98;36.09;97025.11;1749716;81;25668;-91
2021/05/27 09:23:18;;;;;;;1.00;0.90;;;;;;;26.12;36.09;97016.95;1756291;80;25703;-88
2021/05/27 09:25:49;;;;;;;0.70;0.70;;;;;;;26.36;35.98;97020.70;1749156;80;25595;-90
2021/05/27 09:28:23;;;;;;;4.78;0.90;;;;;;;26.77;35.61;97017.51;1752116;81;28005;-90
2021/05/27 09:30:55;;;;;;;1.52;0.70;;;;;;;26.97;35.13;97018.02;1765189;79;25563;-93
2021/05/27 09:33:37;;;;;;;3.72;0.90;;;;;;;26.97;35.29;97019.41;1781763;79;25565;-90
2021/05/27 09:36:19;;;;;;;1.40;1.05;;;;;;;26.96;34.55;97020.55;1765773;79;26356;-90
2021/05/27 09:38:58;;;;;;;0.68;0.68;;;;;;;26.98;34.48;97014.11;1769804;79;25643;-92
2021/05/27 09:41:37;;;;;;;1.67;0.75;;;;;;;26.64;34.22;97014.32;1770111;79;26722;-92
2021/05/27 09:44:13;;;;;;;1.40;0.70;;;;;;;26.29;34.30;97022.33;1768449;79;25911;-92
2021/05/27 09:46:52;;;;;;;3.50;0.82;;;;;;;26.30;34.78;97022.00;1760854;79;25598;-90
2021/05/27 09:49:23;;;;;;;2.95;0.80;;;;;;;26.39;34.78;97016.48;1762423;79;25858;-90
2021/05/27 09:51:51;;;;;;;4.35;0.80;;;;;;;26.57;34.71;97020.11;1764572;79;25594;-92
2021/05/27 09:54:17;;;;;;;1.57;0.90;;;;;;;26.53;33.80;97018.55;1790658;79;27316;-92
2021/05/27 09:56:44;;;;;;;2.15;0.78;;;;;;;26.33;34.21;97016.37;1792631;79;25609;-88
2021/05/27 09:59:13;;;;;;;0.93;0.62;;;;;;;26.21;33.95;97018.34;1773599;79;25796;-94
2021/05/27 10:02:00;;;;;;;0.85;0.78;;;;;;;26.24;34.10;97019.66;1738074;81;26416;-92
2021/05/27 10:04:27;;;;;;;1.22;0.90;;;;;;;26.55;33.93;97013.51;1678167;82;25629;-88
2021/05/27 10:06:54;;;;;;;1.42;0.72;;;;;;;26.99;33.73;97012.97;1784018;79;27486;-94
2021/05/27 10:09:21;;;;;;;1.72;0.80;;;;;;;27.17;33.04;97014.60;1787774;79;25661;-92
2021/05/27 10:11:51;;;;;;;2.25;1.15;;;;;;;26.95;33.58;97020.30;1768978;79;25546;-93
2021/05/27 10:14:16;;;;;;;2.22;1.32;;;;;;;27.09;33.25;97015.41;1761949;79;27113;-94
2021/05/27 10:16:43;;;;;;;2.45;0.90;;;;;;;26.98;33.48;97016.88;1762514;79;25647;-95
2021/05/27 10:19:11;;;;;;;1.80;1.00;;;;;;;26.53;32.77;97011.63;1778310;79;27403;-93
2021/05/27 10:21:38;;;;;;;3.40;0.80;;;;;;;25.96;33.20;97010.25;1761696;79;25724;-93
2021/05/27 10:24:08;;;;;;;3.35;1.07;;;;;;;25.84;33.40;97019.71;1791378;79;25571;-88
2021/05/27 10:26:34;;;;;;;1.37;1.00;;;;;;;25.56;34.11;97012.70;1779274;79;25668;-89
2021/05/27 10:29:02;;;;;;;1.40;1.00;;;;;;;25.37;34.31;97015.67;1788421;79;25616;-94
2021/05/27 10:31:36;;;;;;;3.15;1.40;;;;;;;25.30;34.51;97014.75;1788973;79;27377;-92
2021/05/27 10:34:02;;;;;;;4.42;1.45;;;;;;;25.19;34.02;97015.33;1787397;79;25619;-84
2021/05/27 10:36:43;;;;;;;4.30;1.82;;;;;;;24.90;34.21;97012.95;1782938;79;25731;-87
2021/05/27 10:39:10;;;;;;;3.58;1.60;;;;;;;24.70;34.34;97012.89;1797436;79;25674;-88
2021/05/27 10:41:42;;;;;;;4.60;1.40;;;;;;;24.57;34.56;97015.12;1771680;79;25583;-87
2021/05/27 10:44:14;;;;;;;2.12;1.22;;;;;;;24.43;34.30;97016.53;1770504;79;28114;-88
2021/05/27 10:46:48;;;;;;;2.58;1.25;;;;;;;24.09;34.54;97021.66;1771287;79;25748;-86
2021/05/27 10:49:45;;;;;;;1.07;1.00;;;;;;;23.84;34.78;97010.58;1769009;79;25654;-91
2021/05/27 10:52:33;;;;;;;0.78;0.78;;;;;;;23.74;34.89;97014.92;1775914;79;25716;-91
2021/05/27 10:55:01;;;;;;;1.40;0.70;;;;;;;23.53;34.97;97017.25;1765403;79;25658;-88
2021/05/27 10:57:43;;;;;;;3.00;1.47;;;;;;;23.46;34.84;97019.53;1785279;79;28257;-88
2021/05/27 11:00:21;;;;;;;2.98;1.47;;;;;;;23.38;34.89;97014.73;1770958;79;25804;-88
2021/05/27 11:02:48;;;;;;;4.10;1.98;;;;;;;23.21;35.02;97017.48;1780185;79;25613;-87
2021/05/27 11:05:17;;;;;;;2.52;1.55;;;;;;;23.15;35.46;97026.15;1777083;79;25905;-92
2021/05/27 11:08:16;;;;;;;2.95;1.45;;;;;;;23.13;35.52;97025.07;1769225;79;25555;-84
2021/05/27 11:10:43;;;;;;;3.70;1.82;;;;;;;23.07;35.95;97019.38;1766316;79;27331;-91
2021/05/27 11:13:09;;;;;;;1.92;1.10;;;;;;;22.97;36.01;97018.17;1803783;79;25582;-87
2021/05/27 11:15:58;;;;;;;2.47;1.27;;;;;;;22.95;35.78;97017.65;1793133;79;25662;-83
2021/05/27 11:18:33;;;;;;;3.47;1.20;;;;;;;22.95;35.98;97021.22;1773444;79;26370;-89
2021/05/27 11:21:34;;;;;;;1.47;1.20;;;;;;;22.97;36.04;97022.30;1783606;79;25661;-87
2021/05/27 11:27:28;;;;;;;2.02;1.00;;;;;;;22.80;36.41;97019.30;1791811;79;25921;-87
2021/05/27 11:30:18;;;;;;;1.77;1.00;;;;;;;22.48;36.96;97018.06;1790339;79;25587;-87
2021/05/27 11:33:22;;;;;;;3.70;1.37;;;;;;;22.42;37.54;97025.32;1790374;79;25729;-83
2021/05/27 11:35:53;;;;;;;1.82;1.45;;;;;;;22.41;37.87;97019.00;1786943;79;25615;-88
2021/05/27 11:38:29;;;;;;;5.00;0.95;;;;;;;22.46;37.94;97018.91;1759067;79;27274;-88
2021/05/27 11:41:06;;;;;;;3.02;1.10;;;;;;;22.58;38.04;97015.74;1771771;79;25657;-86
2021/05/27 11:43:43;;;;;;;6.10;1.60;;;;;;;22.63;38.09;97010.15;1770444;79;25623;-88
2021/05/27 11:46:23;;;;;;;3.20;1.10;;;;;;;22.71;38.96;97010.02;1777261;79;25606;-86
2021/05/27 11:51:24;;;;;;;3.62;0.82;;;;;;;22.53;38.85;97024.06;1792678;79;27922;-87
2021/05/27 11:53:56;;;;;;;3.08;1.40;;;;;;;22.58;38.77;97017.91;1791036;79;25646;-84
2021/05/27 11:56:27;;;;;;;;;;;;;;;22.71;38.41;97009.47;1789453;79;25596;-89
2021/05/27 11:58:54;;;;;;;2.30;1.22;;;;;;;22.70;37.79;97012.55;1759562;79;26374;-87
2021/05/27 12:01:27;;;;;;;1.70;1.32;;;;;;;22.62;38.39;97012.08;1771833;79;25607;-90
2021/05/27 12:04:13;;;;;;;1.00;0.90;;;;;;;22.58;38.42;97006.91;1801585;79;27301;-89
2021/05/27 12:06:57;;;;;;;2.87;1.10;;;;;;;22.41;38.56;97012.68;1777535;79;25622;-89